createdAt,value
2018-12-09T00:02:03.490Z,98317.64
2018-12-09T00:04:34.151Z,98336.73
2018-12-09T00:07:04.820Z,98315.56
2018-12-09T00:09:33.571Z,98317.07
2018-12-09T00:12:02.275Z,98300.19
2018-12-09T00:14:31.056Z,98300.18
2018-12-09T00:16:59.811Z,98314.38
2018-12-09T00:19:28.483Z,98321.50
2018-12-09T00:21:57.687Z,98324.33
2018-12-09T00:24:26.432Z,98317.30
2018-12-09T00:26:55.169Z,98341.31
2018-12-09T00:29:23.910Z,98345.81
2018-12-09T00:31:52.665Z,98357.39
2018-12-09T00:34:21.355Z,98360.63
2018-12-09T00:36:50.209Z,98353.11
2018-12-09T00:39:18.875Z,98343.88
2018-12-09T00:41:47.655Z,98360.84
2018-12-09T00:44:17.271Z,98360.91
2018-12-09T00:46:45.969Z,98357.39
2018-12-09T00:49:14.730Z,98347.20
2018-12-09T00:51:43.474Z,98362.34
2018-12-09T00:54:12.299Z,98357.45
2018-12-09T00:56:41.031Z,98361.73
2018-12-09T00:59:09.778Z,98360.13
2018-12-09T01:01:38.532Z,98355.85
2018-12-09T01:04:07.315Z,98348.39
2018-12-09T01:06:36.487Z,98349.31
2018-12-09T01:09:05.917Z,98351.38
2018-12-09T01:11:34.674Z,98345.99
2018-12-09T01:14:03.454Z,98351.23
2018-12-09T01:16:32.215Z,98354.13
2018-12-09T01:19:00.890Z,98343.89
2018-12-09T01:21:29.654Z,98348.20
2018-12-09T01:23:58.433Z,98343.58
2018-12-09T01:26:27.544Z,98348.19
2018-12-09T01:28:56.326Z,98344.80
2018-12-09T01:31:25.035Z,98352.00
2018-12-09T01:33:53.954Z,98354.91
2018-12-09T01:36:22.940Z,98368.72
2018-12-09T01:38:51.754Z,98355.06
2018-12-09T01:41:20.553Z,98360.00
2018-12-09T01:43:49.303Z,98351.89
2018-12-09T01:46:18.113Z,98350.60
2018-12-09T01:48:47.131Z,98350.97
2018-12-09T01:51:15.918Z,98344.55
2018-12-09T01:54:11.530Z,98341.48
2018-12-09T01:56:40.320Z,98352.80
2018-12-09T01:59:09.123Z,98351.44
2018-12-09T02:01:37.982Z,98354.78
2018-12-09T02:04:07.029Z,98370.25
2018-12-09T02:06:36.115Z,98384.11
2018-12-09T02:09:07.455Z,98390.20
2018-12-09T02:11:36.345Z,98406.37
2018-12-09T02:14:05.242Z,98408.48
2018-12-09T02:16:34.495Z,98417.09
2018-12-09T02:19:16.044Z,98422.95
2018-12-09T02:21:45.189Z,98425.98
2018-12-09T02:24:14.073Z,98441.03
2018-12-09T02:26:42.820Z,98448.13
2018-12-09T02:29:11.619Z,98417.02
2018-12-09T02:31:40.431Z,98405.83
2018-12-09T02:34:09.284Z,98409.33
2018-12-09T02:36:38.135Z,98401.44
2018-12-09T02:39:09.441Z,98415.30
2018-12-09T02:41:38.242Z,98412.93
2018-12-09T02:44:07.022Z,98418.02
2018-12-09T02:46:36.183Z,98416.34
2018-12-09T02:49:04.934Z,98409.48
2018-12-09T02:51:33.783Z,98429.69
2018-12-09T02:54:02.509Z,98434.25
2018-12-09T02:56:31.327Z,98431.10
2018-12-09T02:59:00.106Z,98434.36
2018-12-09T03:01:28.896Z,98440.08
2018-12-09T03:03:57.622Z,98435.14
2018-12-09T03:06:26.355Z,98434.56
2018-12-09T03:08:55.360Z,98438.31
2018-12-09T03:11:24.165Z,98438.20
2018-12-09T03:13:52.955Z,98432.60
2018-12-09T03:16:21.691Z,98428.93
2018-12-09T03:18:50.373Z,98428.20
2018-12-09T03:21:19.226Z,98424.91
2018-12-09T03:23:48.971Z,98423.66
2018-12-09T03:26:17.775Z,98429.41
2018-12-09T03:28:47.700Z,98434.09
2018-12-09T03:31:16.493Z,98427.52
2018-12-09T03:33:45.249Z,98421.69
2018-12-09T03:36:14.029Z,98423.81
2018-12-09T03:38:42.780Z,98427.56
2018-12-09T03:41:11.567Z,98429.69
2018-12-09T03:43:40.296Z,98432.32
2018-12-09T03:46:09.064Z,98434.02
2018-12-09T03:48:37.866Z,98436.00
2018-12-09T03:51:06.674Z,98441.45
2018-12-09T03:53:36.585Z,98447.97
2018-12-09T03:56:05.403Z,98452.55
2018-12-09T03:58:34.187Z,98458.43
2018-12-09T04:01:02.917Z,98456.30
2018-12-09T04:03:31.697Z,98449.88
2018-12-09T04:06:00.430Z,98447.63
2018-12-09T04:08:29.123Z,98448.48
2018-12-09T04:10:57.904Z,98443.31
2018-12-09T04:13:26.631Z,98450.42
2018-12-09T04:15:55.786Z,98453.06
2018-12-09T04:18:26.442Z,98449.02
2018-12-09T04:20:55.170Z,98446.53
2018-12-09T04:23:23.890Z,98457.39
2018-12-09T04:25:52.691Z,98463.04
2018-12-09T04:28:22.545Z,98457.57
2018-12-09T04:30:51.270Z,98454.59
2018-12-09T04:33:20.047Z,98460.78
2018-12-09T04:35:48.846Z,98468.22
2018-12-09T04:38:17.951Z,98471.63
2018-12-09T04:40:46.706Z,98470.73
2018-12-09T04:43:15.428Z,98462.17
2018-12-09T04:45:44.214Z,98459.37
2018-12-09T04:48:14.079Z,98457.08
2018-12-09T04:50:42.799Z,98457.61
2018-12-09T04:53:11.587Z,98465.52
2018-12-09T04:55:40.382Z,98471.81
2018-12-09T04:58:09.127Z,98466.59
2018-12-09T05:00:53.356Z,98467.31
2018-12-09T05:03:22.289Z,98468.23
2018-12-09T05:05:51.071Z,98476.17
2018-12-09T05:08:19.861Z,98485.39
2018-12-09T05:10:48.575Z,98493.58
2018-12-09T05:13:17.308Z,98494.41
2018-12-09T05:15:46.104Z,98497.63
2018-12-09T05:18:14.896Z,98504.41
2018-12-09T05:20:43.631Z,98498.41
2018-12-09T05:23:12.373Z,98499.56
2018-12-09T05:25:41.189Z,98509.87
2018-12-09T05:28:09.971Z,98524.70
2018-12-09T05:30:38.695Z,98529.78
2018-12-09T05:33:07.649Z,98536.64
2018-12-09T05:35:36.447Z,98535.17
2018-12-09T05:38:05.226Z,98540.46
2018-12-09T05:40:34.067Z,98535.59
2018-12-09T05:43:02.782Z,98548.70
2018-12-09T05:45:31.582Z,98546.97
2018-12-09T05:48:00.387Z,98549.36
2018-12-09T05:50:29.186Z,98554.66
2018-12-09T05:52:57.910Z,98576.30
2018-12-09T05:55:26.723Z,98567.64
2018-12-09T05:57:55.466Z,98571.25
2018-12-09T06:00:24.209Z,98575.13
2018-12-09T06:02:56.700Z,98572.05
2018-12-09T06:05:25.414Z,98584.08
2018-12-09T06:07:54.300Z,98588.73
2018-12-09T06:10:23.074Z,98604.80
2018-12-09T06:12:51.846Z,98598.56
2018-12-09T06:15:20.563Z,98602.74
2018-12-09T06:17:49.350Z,98609.19
2018-12-09T06:20:18.087Z,98625.41
2018-12-09T06:22:46.830Z,98630.39
2018-12-09T06:25:15.665Z,98627.03
2018-12-09T06:27:44.494Z,98618.98
2018-12-09T06:30:13.635Z,98619.86
2018-12-09T06:32:43.294Z,98630.77
2018-12-09T06:35:12.053Z,98627.77
2018-12-09T06:37:40.910Z,98630.34
2018-12-09T06:40:09.682Z,98624.38
2018-12-09T06:42:38.474Z,98629.41
2018-12-09T06:45:07.327Z,98631.22
2018-12-09T06:47:36.074Z,98634.66
2018-12-09T06:50:07.100Z,98641.47
2018-12-09T06:52:35.921Z,98648.69
2018-12-09T06:55:05.238Z,98655.42
2018-12-09T06:57:33.992Z,98649.52
2018-12-09T07:00:03.088Z,98656.71
2018-12-09T07:02:31.880Z,98657.92
2018-12-09T07:05:00.690Z,98665.15
2018-12-09T07:07:29.527Z,98666.80
2018-12-09T07:09:58.277Z,98672.35
2018-12-09T07:12:27.135Z,98677.00
2018-12-09T07:14:55.930Z,98685.52
2018-12-09T07:17:24.599Z,98685.41
2018-12-09T07:19:53.334Z,98690.59
2018-12-09T07:22:22.066Z,98697.84
2018-12-09T07:24:50.873Z,98695.73
2018-12-09T07:27:19.670Z,98695.71
2018-12-09T07:29:48.735Z,98697.77
2018-12-09T07:32:17.531Z,98700.31
2018-12-09T07:34:46.361Z,98709.64
2018-12-09T07:37:15.078Z,98713.05
2018-12-09T07:39:43.750Z,98706.69
2018-12-09T07:42:12.775Z,98700.36
2018-12-09T07:44:41.562Z,98693.95
2018-12-09T07:47:10.210Z,98694.37
2018-12-09T07:49:39.041Z,98710.84
2018-12-09T07:52:07.883Z,98711.29
2018-12-09T07:54:36.666Z,98718.51
2018-12-09T07:57:05.374Z,98724.48
2018-12-09T07:59:34.135Z,98727.84
2018-12-09T08:02:02.866Z,98737.20
2018-12-09T08:04:31.627Z,98752.85
2018-12-09T08:07:00.291Z,98754.96
2018-12-09T08:09:28.959Z,98760.03
2018-12-09T08:11:57.767Z,98757.47
2018-12-09T08:14:26.611Z,98760.42
2018-12-09T08:16:56.368Z,98767.16
2018-12-09T08:19:25.139Z,98769.75
2018-12-09T08:21:53.875Z,98775.61
2018-12-09T08:24:22.582Z,98781.97
2018-12-09T08:26:51.336Z,98790.97
2018-12-09T08:29:20.061Z,98793.08
2018-12-09T08:31:48.790Z,98793.95
2018-12-09T08:34:17.558Z,98794.34
2018-12-09T08:36:46.279Z,98799.44
2018-12-09T08:39:14.950Z,98815.51
2018-12-09T08:41:43.712Z,98809.61
2018-12-09T08:44:12.509Z,98811.30
2018-12-09T08:46:41.300Z,98818.06
2018-12-09T08:49:10.019Z,98825.23
2018-12-09T08:51:38.699Z,98830.75
2018-12-09T08:54:07.353Z,98839.20
2018-12-09T08:56:36.994Z,98838.75
2018-12-09T08:59:05.852Z,98829.89
2018-12-09T09:01:34.558Z,98839.62
2018-12-09T09:04:03.359Z,98848.11
2018-12-09T09:06:32.166Z,98848.55
2018-12-09T09:09:00.954Z,98861.66
2018-12-09T09:11:29.725Z,98865.49
2018-12-09T09:13:58.444Z,98864.63
2018-12-09T09:16:27.133Z,98871.84
2018-12-09T09:18:55.811Z,98871.39
2018-12-09T09:21:24.542Z,98873.11
2018-12-09T09:23:53.287Z,98884.52
2018-12-09T09:26:22.030Z,98893.44
2018-12-09T09:28:50.705Z,98897.22
2018-12-09T09:31:19.367Z,98902.32
2018-12-09T09:33:48.111Z,98900.20
2018-12-09T09:36:16.828Z,98898.91
2018-12-09T09:38:45.540Z,98907.79
2018-12-09T09:41:14.251Z,98914.58
2018-12-09T09:43:42.897Z,98915.84
2018-12-09T09:46:11.883Z,98924.75
2018-12-09T09:48:40.587Z,98920.95
2018-12-09T09:51:09.311Z,98921.39
2018-12-09T09:53:37.962Z,98919.27
2018-12-09T09:56:06.700Z,98921.39
2018-12-09T09:58:35.418Z,98924.76
2018-12-09T10:01:04.136Z,98929.88
2018-12-09T10:03:32.859Z,98936.23
2018-12-09T10:06:01.514Z,98926.48
2018-12-09T10:08:30.228Z,98947.20
2018-12-09T10:10:58.975Z,98945.09
2018-12-09T10:13:27.750Z,98946.38
2018-12-09T10:15:56.482Z,98948.08
2018-12-09T10:18:25.186Z,98954.41
2018-12-09T10:20:53.894Z,98956.98
2018-12-09T10:23:22.642Z,98955.30
2018-12-09T10:25:51.382Z,98953.15
2018-12-09T10:28:20.094Z,98953.17
2018-12-09T10:30:48.783Z,98959.11
2018-12-09T10:33:17.455Z,98956.55
2018-12-09T10:35:46.142Z,98968.84
2018-12-09T10:38:15.863Z,98958.23
2018-12-09T10:40:44.607Z,98955.27
2018-12-09T10:43:13.302Z,98962.45
2018-12-09T10:45:41.967Z,98959.92
2018-12-09T10:48:11.726Z,98969.20
2018-12-09T10:50:40.451Z,98967.48
2018-12-09T10:53:09.159Z,98969.64
2018-12-09T10:55:37.930Z,98970.03
2018-12-09T10:58:06.659Z,98974.73
2018-12-09T11:00:42.792Z,98984.88
2018-12-09T11:03:11.503Z,98979.79
2018-12-09T11:05:40.169Z,98986.50
2018-12-09T11:08:08.890Z,98985.30
2018-12-09T11:10:37.598Z,98984.00
2018-12-09T11:13:06.432Z,98994.16
2018-12-09T11:15:35.175Z,99004.35
2018-12-09T11:18:03.980Z,98995.84
2018-12-09T11:20:32.652Z,98987.39
2018-12-09T11:23:01.337Z,98990.28
2018-12-09T11:25:30.079Z,98995.48
2018-12-09T11:27:58.782Z,99016.29
2018-12-09T11:30:27.562Z,99009.05
2018-12-09T11:32:56.283Z,98995.87
2018-12-09T11:35:24.939Z,99006.47
2018-12-09T11:37:53.654Z,99010.28
2018-12-09T11:40:22.562Z,99008.63
2018-12-09T11:42:51.319Z,99015.34
2018-12-09T11:45:20.130Z,99009.42
2018-12-09T11:47:48.886Z,99014.94
2018-12-09T11:50:17.634Z,99017.08
2018-12-09T11:52:46.392Z,99014.98
2018-12-09T11:55:15.110Z,99023.05
2018-12-09T11:57:43.879Z,99021.25
2018-12-09T12:00:13.638Z,99021.59
2018-12-09T12:02:43.437Z,99020.80
2018-12-09T12:05:12.178Z,99036.92
2018-12-09T12:07:40.955Z,99028.81
2018-12-09T12:10:09.686Z,99032.73
2018-12-09T12:12:38.398Z,99036.16
2018-12-09T12:15:07.194Z,99033.22
2018-12-09T12:17:35.851Z,99047.23
2018-12-09T12:20:04.739Z,99042.09
2018-12-09T12:22:33.419Z,99045.47
2018-12-09T12:25:02.103Z,99044.21
2018-12-09T12:27:30.851Z,99043.33
2018-12-09T12:29:59.606Z,99027.27
2018-12-09T12:32:28.334Z,99039.52
2018-12-09T12:34:57.010Z,99048.05
2018-12-09T12:37:25.748Z,99055.27
2018-12-09T12:39:54.502Z,99054.36
2018-12-09T12:42:23.215Z,99054.02
2018-12-09T12:44:52.285Z,99053.59
2018-12-09T12:47:21.063Z,99054.80
2018-12-09T12:49:49.823Z,99053.11
2018-12-09T12:52:18.561Z,99061.13
2018-12-09T12:54:47.310Z,99065.80
2018-12-09T12:57:15.975Z,99071.77
2018-12-09T12:59:44.650Z,99074.77
2018-12-09T13:02:13.374Z,99085.38
2018-12-09T13:04:42.106Z,99090.40
2018-12-09T13:07:10.893Z,99103.98
2018-12-09T13:09:39.646Z,99095.52
2018-12-09T13:12:08.409Z,99102.36
2018-12-09T13:14:37.090Z,99106.59
2018-12-09T13:17:05.843Z,99110.45
2018-12-09T13:19:34.682Z,99117.23
2018-12-09T13:22:03.394Z,99128.25
2018-12-09T13:24:32.071Z,99132.48
2018-12-09T13:27:00.800Z,99141.42
2018-12-09T13:29:29.538Z,99136.67
2018-12-09T13:31:58.295Z,99135.84
2018-12-09T13:34:27.060Z,99144.38
2018-12-09T13:36:55.850Z,99143.43
2018-12-09T13:39:24.543Z,99157.88
2018-12-09T13:41:53.217Z,99167.67
2018-12-09T13:44:21.971Z,99168.95
2018-12-09T13:46:50.741Z,99171.09
2018-12-09T13:49:19.504Z,99181.72
2018-12-09T13:51:48.226Z,99186.36
2018-12-09T13:54:16.983Z,99188.50
2018-12-09T13:56:45.663Z,99201.67
2018-12-09T13:59:14.438Z,99211.86
2018-12-09T14:01:43.170Z,99207.21
2018-12-09T14:04:11.920Z,99225.00
2018-12-09T14:06:40.719Z,99223.33
2018-12-09T14:09:09.493Z,99238.61
2018-12-09T14:11:38.218Z,99244.09
2018-12-09T14:14:06.979Z,99240.69
2018-12-09T14:16:35.735Z,99248.79
2018-12-09T14:19:04.506Z,99246.67
2018-12-09T14:21:33.337Z,99250.91
2018-12-09T14:24:02.079Z,99253.44
2018-12-09T14:26:30.836Z,99261.07
2018-12-09T14:28:59.918Z,99271.30
2018-12-09T14:31:30.747Z,99276.37
2018-12-09T14:33:59.423Z,99284.44
2018-12-09T14:36:28.143Z,99288.69
2018-12-09T14:38:57.214Z,99299.29
2018-12-09T14:41:25.963Z,99310.73
2018-12-09T14:43:54.643Z,99315.81
2018-12-09T14:46:23.414Z,99324.33
2018-12-09T14:48:52.151Z,99331.14
2018-12-09T14:51:20.857Z,99337.96
2018-12-09T14:53:49.502Z,99343.01
2018-12-09T14:56:18.220Z,99349.80
2018-12-09T14:58:46.933Z,99356.61
2018-12-09T15:01:16.610Z,99360.78
2018-12-09T15:03:46.286Z,99360.39
2018-12-09T15:06:15.002Z,99356.55
2018-12-09T15:08:43.710Z,99371.88
2018-12-09T15:11:12.486Z,99375.70
2018-12-09T15:13:41.279Z,99381.20
2018-12-09T15:16:10.002Z,99392.27
2018-12-09T15:18:38.743Z,99402.42
2018-12-09T15:21:07.507Z,99402.02
2018-12-09T15:23:36.210Z,99411.38
2018-12-09T15:26:04.959Z,99414.28
2018-12-09T15:28:33.716Z,99419.23
2018-12-09T15:31:02.435Z,99425.59
2018-12-09T15:33:31.123Z,99434.23
2018-12-09T15:35:59.790Z,99435.09
2018-12-09T15:38:28.528Z,99443.59
2018-12-09T15:40:57.211Z,99453.33
2018-12-09T15:43:25.942Z,99463.55
2018-12-09T15:45:55.415Z,99473.95
2018-12-09T15:48:24.163Z,99467.52
2018-12-09T15:50:52.938Z,99465.53
2018-12-09T15:53:21.620Z,99488.03
2018-12-09T15:55:50.331Z,99483.67
2018-12-09T15:58:19.014Z,99487.50
2018-12-09T16:00:53.056Z,99492.25
2018-12-09T16:03:21.720Z,99495.59
2018-12-09T16:05:50.378Z,99504.25
2018-12-09T16:08:19.151Z,99514.43
2018-12-09T16:10:48.515Z,99517.08
2018-12-09T16:13:17.247Z,99520.16
2018-12-09T16:15:45.902Z,99525.38
2018-12-09T16:18:14.667Z,99529.61
2018-12-09T16:20:43.419Z,99537.58
2018-12-09T16:23:12.103Z,99545.30
2018-12-09T16:25:40.831Z,99551.03
2018-12-09T16:28:09.580Z,99561.02
2018-12-09T16:30:38.331Z,99570.25
2018-12-09T16:33:08.186Z,99577.81
2018-12-09T16:35:36.919Z,99581.61
2018-12-09T16:38:05.264Z,99581.37
2018-12-09T16:40:34.003Z,99595.63
2018-12-09T16:43:02.686Z,99600.55
2018-12-09T16:45:31.416Z,99599.98
2018-12-09T16:48:00.223Z,99609.73
2018-12-09T16:50:28.911Z,99608.89
2018-12-09T16:52:57.661Z,99622.42
2018-12-09T16:55:27.247Z,99629.48
2018-12-09T16:57:56.025Z,99632.16
2018-12-09T17:00:24.775Z,99630.71
2018-12-09T17:02:53.480Z,99639.12
2018-12-09T17:05:22.324Z,99643.16
2018-12-09T17:07:51.027Z,99656.88
2018-12-09T17:10:19.748Z,99655.74
2018-12-09T17:12:48.478Z,99670.66
2018-12-09T17:15:17.251Z,99669.75
2018-12-09T17:17:46.643Z,99669.02
2018-12-09T17:20:15.399Z,99675.98
2018-12-09T17:22:44.111Z,99681.91
2018-12-09T17:25:12.835Z,99696.97
2018-12-09T17:27:41.556Z,99699.23
2018-12-09T17:30:10.398Z,99711.97
2018-12-09T17:32:39.137Z,99707.61
2018-12-09T17:35:07.927Z,99714.90
2018-12-09T17:37:37.671Z,99724.84
2018-12-09T17:40:08.075Z,99736.31
2018-12-09T17:42:37.755Z,99741.20
2018-12-09T17:45:06.847Z,99757.37
2018-12-09T17:47:35.535Z,99758.77
2018-12-09T17:50:04.324Z,99762.45
2018-12-09T17:52:33.074Z,99764.47
2018-12-09T17:55:02.014Z,99772.98
2018-12-09T17:57:30.762Z,99782.47
2018-12-09T17:59:59.566Z,99788.83
2018-12-09T18:02:29.071Z,99789.02
2018-12-09T18:04:58.147Z,99787.40
2018-12-09T18:07:26.814Z,99793.66
2018-12-09T18:09:55.508Z,99808.52
2018-12-09T18:12:24.275Z,99819.17
2018-12-09T18:14:52.955Z,99826.47
2018-12-09T18:17:21.659Z,99831.69
2018-12-09T18:19:50.351Z,99839.47
2018-12-09T18:22:19.014Z,99836.26
2018-12-09T18:24:47.723Z,99844.20
2018-12-09T18:27:17.542Z,99816.48
2018-12-09T18:29:46.231Z,99857.28
2018-12-09T18:32:14.962Z,99851.95
2018-12-09T18:34:43.711Z,99851.09
2018-12-09T18:37:12.441Z,99866.82
2018-12-09T18:39:41.370Z,99873.11
2018-12-09T18:42:10.107Z,99880.84
2018-12-09T18:44:38.902Z,99884.83
2018-12-09T18:47:07.654Z,99896.67
2018-12-09T18:49:36.862Z,99909.37
2018-12-09T18:52:05.583Z,99912.09
2018-12-09T18:54:34.271Z,99914.80
2018-12-09T18:57:03.079Z,99916.41
2018-12-09T18:59:31.859Z,99921.89
2018-12-09T19:02:00.527Z,99934.56
2018-12-09T19:04:29.253Z,99939.20
2018-12-09T19:06:57.987Z,99948.34
2018-12-09T19:09:26.726Z,99947.76
2018-12-09T19:11:56.491Z,99955.34
2018-12-09T19:14:25.198Z,99966.37
2018-12-09T19:16:53.963Z,99977.09
2018-12-09T19:19:22.629Z,99979.26
2018-12-09T19:21:51.354Z,99985.42
2018-12-09T19:24:20.119Z,99986.52
2018-12-09T19:26:48.876Z,99995.17
2018-12-09T19:29:17.553Z,100008.66
2018-12-09T19:31:46.247Z,100002.92
2018-12-09T19:34:15.651Z,100001.14
2018-12-09T19:36:44.411Z,100012.61
2018-12-09T19:39:13.150Z,100009.44
2018-12-09T19:41:43.854Z,100015.70
2018-12-09T19:44:12.615Z,100027.13
2018-12-09T19:46:41.383Z,100024.31
2018-12-09T19:49:10.146Z,100032.88
2018-12-09T19:51:38.844Z,100037.33
2018-12-09T19:54:07.707Z,100048.16
2018-12-09T19:56:36.448Z,100040.11
2018-12-09T19:59:05.175Z,100062.03
2018-12-09T20:01:33.964Z,100064.25
2018-12-09T20:04:02.678Z,100065.70
2018-12-09T20:06:31.412Z,100079.22
2018-12-09T20:09:00.155Z,100090.38
2018-12-09T20:11:28.850Z,100081.22
2018-12-09T20:13:57.622Z,100091.23
2018-12-09T20:16:26.391Z,100111.46
2018-12-09T20:18:55.113Z,100101.16
2018-12-09T20:21:23.867Z,100116.95
2018-12-09T20:23:52.635Z,100122.83
2018-12-09T20:26:21.551Z,100118.50
2018-12-09T20:28:50.267Z,100138.89
2018-12-09T20:31:19.046Z,100133.92
2018-12-09T20:33:47.783Z,100127.46
2018-12-09T20:36:16.538Z,100151.86
2018-12-09T20:38:45.323Z,100146.75
2018-12-09T20:41:14.096Z,100151.52
2018-12-09T20:43:42.964Z,100151.52
2018-12-09T20:46:11.731Z,100075.67
2018-12-09T20:48:40.501Z,100156.70
2018-12-09T20:51:09.279Z,100163.01
2018-12-09T20:53:38.063Z,100159.86
2018-12-09T20:56:06.829Z,100164.19
2018-12-09T20:58:35.608Z,100165.73
2018-12-09T21:01:04.375Z,100177.98
2018-12-09T21:03:33.246Z,100169.44
2018-12-09T21:06:02.957Z,100177.42
2018-12-09T21:08:31.721Z,100181.14
2018-12-09T21:11:00.479Z,100190.73
2018-12-09T21:13:29.252Z,100194.84
2018-12-09T21:15:57.996Z,100209.39
2018-12-09T21:18:26.825Z,100212.35
2018-12-09T21:20:55.661Z,100206.72
2018-12-09T21:23:24.507Z,100221.45
2018-12-09T21:25:53.227Z,100220.44
2018-12-09T21:28:21.956Z,100222.67
2018-12-09T21:30:50.761Z,100227.53
2018-12-09T21:33:19.533Z,100237.77
2018-12-09T21:35:48.286Z,100239.42
2018-12-09T21:38:17.040Z,100245.31
2018-12-09T21:40:45.754Z,100252.97
2018-12-09T21:43:14.531Z,100252.92
2018-12-09T21:45:43.270Z,100251.48
2018-12-09T21:48:13.099Z,100265.09
2018-12-09T21:50:41.828Z,100270.87
2018-12-09T21:53:10.624Z,100262.44
2018-12-09T21:55:39.329Z,100273.10
2018-12-09T21:58:08.091Z,100269.89
2018-12-09T22:00:36.822Z,100272.70
2018-12-09T22:03:05.620Z,100278.59
2018-12-09T22:05:34.376Z,100280.42
2018-12-09T22:08:03.138Z,100285.34
2018-12-09T22:10:31.911Z,100291.50
2018-12-09T22:13:00.731Z,100290.42
2018-12-09T22:15:29.782Z,100293.21
2018-12-09T22:17:58.594Z,100296.62
2018-12-09T22:20:27.384Z,100309.43
2018-12-09T22:22:56.115Z,100303.48
2018-12-09T22:25:24.879Z,100313.65
2018-12-09T22:27:53.651Z,100320.55
2018-12-09T22:30:22.382Z,100316.41
2018-12-09T22:32:51.099Z,100319.92
2018-12-09T22:35:19.847Z,100322.55
2018-12-09T22:37:48.528Z,100328.66
2018-12-09T22:40:17.315Z,100331.70
2018-12-09T22:42:46.047Z,100332.06
2018-12-09T22:45:14.839Z,100347.54
2018-12-09T22:47:43.567Z,100346.12
2018-12-09T22:50:12.360Z,100352.42
2018-12-09T22:52:41.100Z,100354.34
2018-12-09T22:55:09.814Z,100355.48
2018-12-09T22:57:38.543Z,100362.13
2018-12-09T23:00:14.324Z,100369.82
2018-12-09T23:02:49.552Z,100374.44
2018-12-09T23:05:18.278Z,100374.89
2018-12-09T23:07:52.335Z,100381.56
2018-12-09T23:10:21.175Z,100379.03
2018-12-09T23:12:49.927Z,100387.22
2018-12-09T23:15:18.647Z,100390.38
2018-12-09T23:17:47.366Z,100401.57
2018-12-09T23:20:16.106Z,100401.27
2018-12-09T23:22:44.870Z,100410.04
2018-12-09T23:25:13.590Z,100413.33
2018-12-09T23:27:42.246Z,100429.87
2018-12-09T23:30:11.030Z,100420.24
2018-12-09T23:32:39.726Z,100412.04
2018-12-09T23:35:08.451Z,100426.34
2018-12-09T23:37:37.174Z,100426.66
2018-12-09T23:40:07.755Z,100425.41
2018-12-09T23:42:36.494Z,100431.45
2018-12-09T23:45:05.954Z,100438.66
2018-12-09T23:47:34.797Z,100453.34
2018-12-09T23:50:03.746Z,100454.13
2018-12-09T23:52:32.487Z,100446.92
2018-12-09T23:55:01.508Z,100465.02
2018-12-09T23:57:30.314Z,100459.97
2018-12-09T23:59:59.046Z,100455.80
